Time;durP1;ratioP1;P1;durP2;ratioP2;P2;SDS_P1;SDS_P2;PMS_P1;PMS_P2;Temp;Humidity;BMP_temperature;BMP_pressure;BME280_temperature;BME280_humidity;BME280_pressure;Samples;Min_cycle;Max_cycle;Signal;HPM_P1;HPM_P2
2021/03/14 00:01:34;;;;;;;2.10;1.10;;;4.40;96.50;;;;;;5000872;28;20253;-86
2021/03/14 00:04:00;;;;;;;0.87;0.87;;;4.40;97.80;;;;;;5028499;28;20237;-87
2021/03/14 00:06:26;;;;;;;1.20;1.00;;;4.20;96.80;;;;;;5030499;28;20274;-87
2021/03/14 00:08:51;;;;;;;2.30;1.20;;;4.20;96.80;;;;;;5030449;28;20182;-87
2021/03/14 00:11:17;;;;;;;1.57;0.77;;;4.00;98.10;;;;;;5027845;28;20197;-86
2021/03/14 00:13:43;;;;;;;0.60;0.60;;;4.10;98.30;;;;;;5027457;28;20185;-87
2021/03/14 00:16:09;;;;;;;0.83;0.80;;;4.00;98.60;;;;;;5027225;28;20213;-86
2021/03/14 00:18:40;;;;;;;1.87;1.00;;;3.90;98.00;;;;;;5028027;28;20194;-86
2021/03/14 00:21:08;;;;;;;2.10;0.97;;;3.80;98.50;;;;;;5027443;28;20215;-86
2021/03/14 00:23:33;;;;;;;1.30;1.20;;;3.90;99.00;;;;;;5015386;28;20182;-86
2021/03/14 00:26:00;;;;;;;0.70;0.70;;;3.80;99.70;;;;;;5008001;28;20189;-86
2021/03/14 00:28:26;;;;;;;1.23;0.93;;;3.90;99.40;;;;;;5010584;28;20185;-87
2021/03/14 00:30:52;;;;;;;0.90;0.90;;;3.90;99.90;;;;;;5027080;28;20572;-87
2021/03/14 00:33:18;;;;;;;0.70;0.70;;;3.90;98.90;;;;;;5026369;28;20201;-87
2021/03/14 00:35:44;;;;;;;1.67;1.07;;;3.90;98.80;;;;;;5028216;28;20178;-87
2021/03/14 00:38:10;;;;;;;1.60;0.80;;;3.90;98.60;;;;;;5030857;28;20275;-85
2021/03/14 00:40:36;;;;;;;0.87;0.60;;;3.90;99.00;;;;;;5026618;28;20221;-87
2021/03/14 00:43:04;;;;;;;0.60;0.60;;;3.90;98.50;;;;;;5026369;28;20194;-87
2021/03/14 00:45:35;;;;;;;1.03;0.93;;;3.90;99.80;;;;;;5027498;28;20185;-87
2021/03/14 00:48:03;;;;;;;1.13;1.03;;;3.80;99.10;;;;;;5026896;28;20255;-87
2021/03/14 00:50:36;;;;;;;1.10;1.00;;;3.90;99.70;;;;;;5029171;28;20216;-86
2021/03/14 00:53:03;;;;;;;2.40;1.10;;;3.90;99.00;;;;;;5026954;28;20205;-87
2021/03/14 00:55:29;;;;;;;2.10;1.23;;;3.80;98.80;;;;;;5031485;28;20216;-87
2021/03/14 00:57:55;;;;;;;3.37;1.57;;;4.00;98.10;;;;;;5027243;28;20205;-87
2021/03/14 01:00:21;;;;;;;2.53;1.00;;;3.90;98.90;;;;;;5027587;28;20576;-87
2021/03/14 01:02:47;;;;;;;1.20;1.10;;;3.90;99.40;;;;;;5009969;28;20192;-86
2021/03/14 01:05:13;;;;;;;2.37;1.57;;;4.00;98.60;;;;;;5028056;28;20664;-87
2021/03/14 01:07:38;;;;;;;1.93;0.90;;;3.90;99.70;;;;;;5027297;28;20288;-86
2021/03/14 01:10:06;;;;;;;1.30;1.07;;;3.90;99.40;;;;;;5008454;28;20190;-86
2021/03/14 01:12:31;;;;;;;1.17;1.00;;;3.90;97.80;;;;;;4991308;28;20209;-86
2021/03/14 01:14:57;;;;;;;1.83;1.20;;;3.90;97.70;;;;;;5022942;28;20205;-86
2021/03/14 01:17:23;;;;;;;1.40;1.30;;;3.80;99.00;;;;;;5025936;28;20297;-87
2021/03/14 01:19:49;;;;;;;3.27;2.80;;;3.80;97.60;;;;;;5042875;28;20213;-87
2021/03/14 01:22:14;;;;;;;1.20;1.10;;;3.80;97.70;;;;;;5027131;28;20208;-87
2021/03/14 01:24:40;;;;;;;2.10;1.10;;;3.80;98.30;;;;;;5027611;28;20243;-87
2021/03/14 01:27:06;;;;;;;1.67;1.50;;;3.80;97.90;;;;;;5026797;28;20228;-87
2021/03/14 01:29:32;;;;;;;1.93;1.10;;;3.80;98.20;;;;;;5027556;28;20189;-87
2021/03/14 01:31:57;;;;;;;2.17;1.30;;;3.90;97.50;;;;;;5013946;28;20196;-87
2021/03/14 01:34:23;;;;;;;1.63;0.90;;;3.80;97.30;;;;;;5027114;28;20190;-87
2021/03/14 01:36:49;;;;;;;1.17;1.00;;;3.70;99.00;;;;;;5009495;28;20212;-87
2021/03/14 01:39:14;;;;;;;1.27;1.10;;;3.60;99.20;;;;;;5027096;28;20213;-87
2021/03/14 01:41:40;;;;;;;1.70;1.20;;;3.60;99.30;;;;;;5026835;28;20208;-87
2021/03/14 01:44:06;;;;;;;2.07;1.20;;;3.70;99.10;;;;;;5025337;28;20186;-88
2021/03/14 01:46:33;;;;;;;1.23;1.10;;;3.70;98.90;;;;;;5008349;28;20219;-86
2021/03/14 01:49:00;;;;;;;1.37;1.27;;;3.70;98.70;;;;;;5005533;28;20205;-86
2021/03/14 01:51:25;;;;;;;1.63;1.60;;;3.70;98.30;;;;;;5007433;28;20189;-85
2021/03/14 01:53:51;;;;;;;1.13;1.10;;;3.60;99.20;;;;;;5007050;28;20186;-87
2021/03/14 01:56:18;;;;;;;2.17;1.40;;;3.60;99.00;;;;;;5019880;28;20209;-87
2021/03/14 01:58:46;;;;;;;1.30;1.20;;;3.60;98.90;;;;;;5026677;28;20276;-86
2021/03/14 02:01:12;;;;;;;2.90;2.70;;;3.60;99.70;;;;;;5010077;28;20209;-86
2021/03/14 02:03:38;;;;;;;1.53;1.40;;;3.60;98.80;;;;;;5028298;28;20178;-86
2021/03/14 02:06:04;;;;;;;3.17;1.50;;;3.60;99.80;;;;;;5025610;28;20248;-86
2021/03/14 02:08:30;;;;;;;1.60;1.50;;;3.60;99.80;;;;;;5026024;28;20618;-87
2021/03/14 02:10:56;;;;;;;1.93;1.53;;;3.60;99.90;;;;;;5026573;28;20249;-86
2021/03/14 02:13:30;;;;;;;2.30;1.67;;;3.60;99.90;;;;;;5026637;28;20210;-87
2021/03/14 02:16:18;;;;;;;1.63;1.50;;;3.60;99.90;;;;;;5025405;28;20177;-87
2021/03/14 02:18:49;;;;;;;1.97;1.73;;;3.50;99.90;;;;;;5026341;28;20170;-87
2021/03/14 02:21:15;;;;;;;1.70;1.60;;;3.60;99.90;;;;;;5025889;28;20197;-87
2021/03/14 02:23:52;;;;;;;1.53;1.40;;;3.50;99.90;;;;;;5025939;28;20193;-87
2021/03/14 02:26:24;;;;;;;3.83;1.70;;;3.60;99.90;;;;;;5026864;28;20219;-87
2021/03/14 02:28:52;;;;;;;3.00;1.60;;;3.60;99.90;;;;;;5024119;28;20183;-87
2021/03/14 02:31:22;;;;;;;3.30;1.50;;;3.60;99.90;;;;;;5026386;28;20178;-87
2021/03/14 02:33:52;;;;;;;4.97;1.67;;;3.60;99.90;;;;;;5026274;28;20653;-87
2021/03/14 02:36:19;;;;;;;1.93;1.80;;;3.60;99.90;;;;;;5008838;28;20724;-87
2021/03/14 02:38:46;;;;;;;1.97;1.80;;;3.50;99.90;;;;;;5025899;28;20609;-87
2021/03/14 02:41:13;;;;;;;4.57;2.03;;;3.60;99.90;;;;;;5026058;28;20210;-87
2021/03/14 02:43:40;;;;;;;3.03;2.20;;;3.60;99.90;;;;;;5013623;28;20189;-87
2021/03/14 02:46:06;;;;;;;2.17;1.97;;;3.50;99.90;;;;;;5006328;28;20198;-87
2021/03/14 02:48:33;;;;;;;3.53;2.50;;;3.60;99.90;;;;;;5005540;28;20186;-86
2021/03/14 02:51:01;;;;;;;2.40;2.20;;;3.60;99.90;;;;;;5000034;28;20250;-86
2021/03/14 02:53:27;;;;;;;2.53;2.20;;;3.60;99.90;;;;;;5025251;28;20561;-86
2021/03/14 02:55:54;;;;;;;2.73;2.10;;;3.70;99.90;;;;;;5026272;28;20189;-87
2021/03/14 02:58:22;;;;;;;5.50;2.10;;;3.80;99.80;;;;;;5008484;28;20208;-87
2021/03/14 03:00:49;;;;;;;2.57;2.03;;;3.80;99.60;;;;;;5026315;28;20439;-87
2021/03/14 03:03:15;;;;;;;2.53;2.23;;;3.90;99.30;;;;;;5027008;28;20204;-87
2021/03/14 03:05:42;;;;;;;2.93;2.33;;;3.80;99.60;;;;;;5008753;28;20178;-87
2021/03/14 03:08:08;;;;;;;4.40;2.33;;;3.80;99.90;;;;;;5008569;28;20261;-86
2021/03/14 03:10:42;;;;;;;2.27;2.00;;;3.80;99.90;;;;;;5021643;28;20186;-87
2021/03/14 03:13:10;;;;;;;3.90;2.23;;;3.80;99.60;;;;;;4992541;28;20190;-87
2021/03/14 03:15:36;;;;;;;2.90;2.30;;;3.70;99.90;;;;;;4991638;28;20178;-87
2021/03/14 03:18:03;;;;;;;2.60;2.40;;;3.80;99.90;;;;;;5009799;28;20205;-87
2021/03/14 03:20:29;;;;;;;3.93;2.50;;;3.80;99.90;;;;;;5009793;28;20665;-86
2021/03/14 03:22:55;;;;;;;3.10;2.60;;;3.70;99.90;;;;;;5010158;28;20219;-88
2021/03/14 03:25:22;;;;;;;4.27;2.50;;;3.70;99.90;;;;;;5005956;28;20668;-87
2021/03/14 03:27:49;;;;;;;2.43;2.23;;;3.80;99.90;;;;;;5032878;28;20202;-87
2021/03/14 03:30:18;;;;;;;2.77;2.30;;;3.70;99.90;;;;;;5029534;28;20186;-87
2021/03/14 03:32:45;;;;;;;2.77;2.40;;;3.70;99.90;;;;;;5029748;28;20585;-87
2021/03/14 03:35:12;;;;;;;2.60;2.13;;;3.80;99.90;;;;;;5029242;28;20177;-87
2021/03/14 03:37:38;;;;;;;3.70;2.53;;;3.80;99.90;;;;;;5028943;28;20269;-86
2021/03/14 03:40:10;;;;;;;1.90;1.80;;;3.90;98.50;;;;;;5028229;28;20209;-87
2021/03/14 03:42:51;;;;;;;1.57;1.47;;;3.90;98.50;;;;;;5028592;28;20170;-87
2021/03/14 03:45:19;;;;;;;3.20;1.80;;;4.00;97.50;;;;;;5028199;28;20158;-87
2021/03/14 03:47:44;;;;;;;1.90;1.63;;;4.00;97.10;;;;;;5010746;28;20273;-87
2021/03/14 03:50:14;;;;;;;4.23;1.80;;;3.90;97.70;;;;;;5027138;28;20667;-87
2021/03/14 03:52:42;;;;;;;2.00;1.60;;;3.80;98.00;;;;;;5001012;28;20270;-86
2021/03/14 03:55:09;;;;;;;2.03;1.53;;;3.90;96.90;;;;;;4990979;28;20198;-87
2021/03/14 03:57:37;;;;;;;2.00;1.30;;;3.90;98.20;;;;;;5008211;28;20217;-87
2021/03/14 04:00:06;;;;;;;2.20;1.60;;;3.80;97.60;;;;;;5008382;28;20245;-87
2021/03/14 04:02:32;;;;;;;1.43;1.33;;;3.80;97.80;;;;;;5008179;28;20233;-87
2021/03/14 04:04:58;;;;;;;1.43;1.20;;;3.70;97.60;;;;;;5008672;28;20178;-87
2021/03/14 04:07:24;;;;;;;2.30;1.70;;;3.80;97.10;;;;;;5008426;28;20211;-87
2021/03/14 04:09:50;;;;;;;2.77;1.40;;;3.80;97.30;;;;;;5008640;28;20297;-87
2021/03/14 04:12:17;;;;;;;1.10;1.00;;;3.80;97.60;;;;;;5008390;28;20189;-87
2021/03/14 04:14:43;;;;;;;1.10;1.10;;;3.90;96.90;;;;;;5008393;28;20206;-87
2021/03/14 04:17:09;;;;;;;3.60;1.50;;;3.90;96.30;;;;;;5008120;28;20205;-87
2021/03/14 04:19:35;;;;;;;2.50;1.13;;;3.90;97.00;;;;;;5010038;28;20284;-87
2021/03/14 04:22:02;;;;;;;2.27;1.20;;;4.00;94.70;;;;;;5026899;28;20213;-87
2021/03/14 04:24:30;;;;;;;1.03;1.03;;;3.80;96.00;;;;;;5010531;28;20213;-87
2021/03/14 04:26:58;;;;;;;2.17;0.90;;;3.80;95.70;;;;;;5027501;28;20194;-86
2021/03/14 04:29:27;;;;;;;1.73;1.13;;;4.00;94.60;;;;;;5026877;28;20268;-87
2021/03/14 04:31:54;;;;;;;2.60;1.10;;;3.80;95.90;;;;;;5027781;28;20730;-87
2021/03/14 04:34:22;;;;;;;1.30;1.20;;;3.80;96.30;;;;;;5027584;28;20197;-86
2021/03/14 04:36:49;;;;;;;1.33;1.00;;;3.80;96.70;;;;;;5026160;28;20209;-87
2021/03/14 04:39:16;;;;;;;1.27;1.10;;;3.80;96.40;;;;;;5027076;28;20224;-87
2021/03/14 04:41:44;;;;;;;2.00;1.20;;;3.80;96.60;;;;;;5026804;28;20178;-87
2021/03/14 04:44:10;;;;;;;0.93;0.90;;;3.80;96.10;;;;;;5009140;28;20181;-87
2021/03/14 04:46:37;;;;;;;2.80;1.40;;;3.80;96.40;;;;;;5026832;28;20208;-87
2021/03/14 04:49:03;;;;;;;0.90;0.90;;;3.60;97.10;;;;;;5009871;28;20273;-87
2021/03/14 04:51:31;;;;;;;1.53;1.10;;;3.60;97.30;;;;;;5029362;28;20178;-87
2021/03/14 04:53:58;;;;;;;1.80;1.20;;;3.70;97.60;;;;;;5011240;28;20182;-86
2021/03/14 04:56:26;;;;;;;3.33;1.50;;;3.80;96.90;;;;;;5027326;28;20210;-87
2021/03/14 04:58:55;;;;;;;1.30;1.17;;;3.80;97.30;;;;;;5010178;28;20669;-87
2021/03/14 05:01:22;;;;;;;1.83;1.40;;;3.70;97.80;;;;;;5025209;28;20253;-86
2021/03/14 05:03:51;;;;;;;4.40;1.77;;;3.70;98.20;;;;;;5007833;28;20174;-87
2021/03/14 05:06:19;;;;;;;2.57;2.07;;;3.70;98.60;;;;;;5007065;28;20194;-87
2021/03/14 05:08:46;;;;;;;1.80;1.50;;;3.60;98.70;;;;;;4990118;28;20212;-87
2021/03/14 05:11:16;;;;;;;2.50;1.70;;;3.60;99.00;;;;;;5007533;28;20209;-87
2021/03/14 05:13:43;;;;;;;3.50;1.67;;;3.60;98.40;;;;;;5007277;28;20186;-87
2021/03/14 05:16:09;;;;;;;2.13;1.93;;;3.60;98.20;;;;;;5007287;28;20258;-87
2021/03/14 05:18:37;;;;;;;2.47;1.80;;;3.70;98.80;;;;;;4990167;28;20249;-86
2021/03/14 05:21:04;;;;;;;4.50;2.23;;;3.70;97.50;;;;;;4989807;28;20249;-87
2021/03/14 05:23:32;;;;;;;3.27;2.10;;;3.70;98.80;;;;;;5007239;28;20209;-87
2021/03/14 05:26:01;;;;;;;3.17;2.13;;;3.70;98.40;;;;;;5007009;28;20181;-87
2021/03/14 05:28:27;;;;;;;4.00;2.20;;;3.70;98.10;;;;;;5007023;28;20249;-87
2021/03/14 05:30:54;;;;;;;2.10;1.70;;;3.70;98.30;;;;;;5025471;28;20205;-87
2021/03/14 05:33:20;;;;;;;3.73;1.80;;;3.70;98.10;;;;;;5026334;28;20237;-86
2021/03/14 05:35:46;;;;;;;3.03;2.07;;;3.70;97.90;;;;;;5008546;28;20190;-87
2021/03/14 05:38:11;;;;;;;5.17;2.00;;;3.70;97.70;;;;;;5024402;28;20739;-87
2021/03/14 05:40:37;;;;;;;2.37;2.13;;;3.70;97.30;;;;;;5026541;28;20225;-87
2021/03/14 05:43:04;;;;;;;5.60;2.40;;;3.70;96.20;;;;;;5026712;28;20205;-87
2021/03/14 05:45:30;;;;;;;2.10;1.90;;;3.70;96.20;;;;;;5026369;28;20248;-87
2021/03/14 05:47:59;;;;;;;3.10;2.30;;;3.80;94.60;;;;;;5025992;28;20266;-87
2021/03/14 05:50:28;;;;;;;4.27;2.17;;;3.70;95.30;;;;;;5025657;28;20205;-87
2021/03/14 05:52:54;;;;;;;4.70;2.23;;;3.80;95.20;;;;;;5024787;28;20192;-87
2021/03/14 05:55:27;;;;;;;4.23;2.20;;;3.70;95.60;;;;;;5008527;28;20284;-87
2021/03/14 05:57:55;;;;;;;4.77;2.30;;;3.70;94.90;;;;;;5026199;28;20225;-87
2021/03/14 06:00:28;;;;;;;4.33;2.23;;;3.70;93.70;;;;;;5008679;28;20213;-86
2021/03/14 06:03:02;;;;;;;4.63;2.23;;;3.70;94.40;;;;;;5010749;28;20180;-86
2021/03/14 06:05:29;;;;;;;4.80;1.93;;;3.80;93.20;;;;;;5017011;28;20198;-87
2021/03/14 06:07:56;;;;;;;3.00;2.23;;;3.80;93.50;;;;;;5026043;28;20903;-86
2021/03/14 06:10:23;;;;;;;2.70;2.00;;;3.80;93.60;;;;;;5007405;28;20586;-87
2021/03/14 06:12:49;;;;;;;5.77;2.13;;;3.70;92.80;;;;;;4989483;28;20275;-87
2021/03/14 06:15:16;;;;;;;2.87;2.20;;;3.70;93.90;;;;;;4990352;28;20207;-87
2021/03/14 06:17:43;;;;;;;4.67;2.30;;;3.80;92.30;;;;;;5008964;28;20198;-87
2021/03/14 06:20:29;;;;;;;6.03;2.30;;;3.80;91.10;;;;;;5013359;28;20688;-87
2021/03/14 06:23:08;;;;;;;4.57;2.50;;;3.80;91.70;;;;;;5007457;28;20181;-87
2021/03/14 06:25:34;;;;;;;2.73;2.30;;;3.80;90.60;;;;;;5020686;28;20201;-87
2021/03/14 06:28:00;;;;;;;4.97;2.63;;;3.80;91.70;;;;;;5021981;28;20218;-87
2021/03/14 06:30:32;;;;;;;4.23;3.13;;;3.80;90.50;;;;;;5004166;28;20191;-87
2021/03/14 06:33:16;;;;;;;2.40;2.00;;;3.80;90.90;;;;;;5014014;28;20245;-87
2021/03/14 06:35:53;;;;;;;2.83;1.87;;;3.80;90.40;;;;;;5012464;28;20182;-87
2021/03/14 06:38:34;;;;;;;5.27;2.80;;;3.90;89.80;;;;;;5025666;28;20180;-87
2021/03/14 06:41:03;;;;;;;5.50;2.03;;;3.80;90.50;;;;;;4998615;28;20225;-86
2021/03/14 06:43:56;;;;;;;3.67;2.20;;;3.90;91.70;;;;;;5012088;28;20209;-86
2021/03/14 06:46:27;;;;;;;2.97;2.40;;;3.80;92.20;;;;;;5023859;28;20209;-86
2021/03/14 06:49:06;;;;;;;5.43;2.47;;;3.70;93.10;;;;;;5029017;28;20178;-86
2021/03/14 06:51:33;;;;;;;5.70;2.07;;;3.90;91.40;;;;;;5028734;28;20201;-86
2021/03/14 06:54:17;;;;;;;5.03;2.30;;;3.80;91.10;;;;;;5029670;28;20254;-86
2021/03/14 06:57:02;;;;;;;4.83;2.53;;;3.80;92.90;;;;;;5029356;28;20201;-87
2021/03/14 06:59:31;;;;;;;6.17;2.00;;;3.80;91.00;;;;;;5028707;28;20189;-87
2021/03/14 07:01:57;;;;;;;3.60;2.07;;;3.90;91.30;;;;;;5029201;28;20188;-90
2021/03/14 07:04:54;;;;;;;5.53;2.17;;;3.90;91.10;;;;;;5029281;28;20173;-88
2021/03/14 07:07:28;;;;;;;3.13;2.10;;;4.00;90.30;;;;;;5028399;28;20193;-88
2021/03/14 07:10:00;;;;;;;3.23;2.60;;;3.90;91.40;;;;;;5028749;28;20182;-88
2021/03/14 07:12:37;;;;;;;4.77;2.60;;;3.90;92.30;;;;;;5028749;28;20185;-88
2021/03/14 07:15:29;;;;;;;2.80;2.20;;;3.80;93.70;;;;;;5028115;28;20241;-87
2021/03/14 07:17:57;;;;;;;6.23;2.30;;;3.90;92.40;;;;;;4998362;28;20232;-90
2021/03/14 07:20:26;;;;;;;5.77;3.03;;;4.00;92.50;;;;;;5009379;28;20211;-90
2021/03/14 07:23:06;;;;;;;7.60;2.10;;;4.00;95.40;;;;;;5009507;28;20237;-91
2021/03/14 07:25:34;;;;;;;5.03;2.20;;;4.10;92.30;;;;;;5009334;28;20178;-91
2021/03/14 07:28:00;;;;;;;3.70;2.50;;;4.00;93.60;;;;;;5024838;28;20201;-90
2021/03/14 07:30:28;;;;;;;3.60;2.20;;;4.00;92.40;;;;;;5011874;28;20189;-89
2021/03/14 07:32:55;;;;;;;7.93;2.73;;;4.10;91.70;;;;;;5012482;28;20189;-90
2021/03/14 07:35:22;;;;;;;3.57;2.37;;;4.00;92.40;;;;;;5012245;28;20182;-90
2021/03/14 07:37:49;;;;;;;6.67;2.60;;;4.00;93.00;;;;;;5019230;28;20217;-91
2021/03/14 07:40:18;;;;;;;7.63;2.40;;;4.10;93.20;;;;;;4998082;28;20213;-91
2021/03/14 07:42:44;;;;;;;7.70;2.90;;;4.20;92.60;;;;;;5002169;28;20185;-91
2021/03/14 07:45:13;;;;;;;3.87;2.10;;;4.40;92.70;;;;;;5002013;28;20189;-90
2021/03/14 07:47:40;;;;;;;4.37;2.27;;;4.50;90.20;;;;;;5011384;28;20201;-91
2021/03/14 07:50:33;;;;;;;7.03;2.77;;;4.60;90.00;;;;;;5006758;28;20219;-91
2021/03/14 07:53:18;;;;;;;4.20;2.03;;;4.60;90.90;;;;;;5010871;28;20207;-90
2021/03/14 07:55:55;;;;;;;4.87;2.50;;;4.60;88.60;;;;;;5010533;28;20180;-90
2021/03/14 07:58:24;;;;;;;4.93;1.90;;;4.50;88.90;;;;;;5027884;28;20623;-91
2021/03/14 08:00:50;;;;;;;6.87;1.90;;;4.40;88.40;;;;;;5011210;28;20205;-90
2021/03/14 08:03:16;;;;;;;3.70;2.20;;;4.30;89.20;;;;;;5028234;28;20695;-90
2021/03/14 08:05:48;;;;;;;4.10;2.00;;;4.20;90.10;;;;;;5011571;28;20189;-90
2021/03/14 08:08:40;;;;;;;2.77;1.57;;;4.30;89.60;;;;;;5003787;28;20202;-91
2021/03/14 08:11:22;;;;;;;6.40;2.03;;;4.30;89.40;;;;;;5018924;28;20196;-90
2021/03/14 08:13:48;;;;;;;4.40;2.00;;;4.30;90.00;;;;;;5028654;28;20495;-91
2021/03/14 08:16:14;;;;;;;3.30;1.80;;;4.30;90.80;;;;;;5011093;28;20210;-90
2021/03/14 08:18:52;;;;;;;5.57;2.30;;;4.30;90.40;;;;;;5027843;28;20205;-91
2021/03/14 08:21:23;;;;;;;4.90;2.30;;;4.50;89.50;;;;;;5011462;28;20210;-91
2021/03/14 08:23:51;;;;;;;4.87;2.17;;;4.50;90.20;;;;;;5009756;28;20561;-90
2021/03/14 08:26:22;;;;;;;3.17;1.80;;;4.50;88.30;;;;;;5008680;28;20202;-90
2021/03/14 08:29:03;;;;;;;3.03;2.00;;;4.70;87.80;;;;;;5009431;28;20179;-90
2021/03/14 08:31:50;;;;;;;7.50;2.57;;;4.60;86.20;;;;;;4990580;28;20191;-90
2021/03/14 08:34:40;;;;;;;3.27;1.83;;;4.60;88.30;;;;;;5008622;28;20213;-89
2021/03/14 08:37:27;;;;;;;3.77;1.90;;;4.70;88.40;;;;;;5009503;28;20216;-89
2021/03/14 08:40:06;;;;;;;5.27;2.03;;;4.60;87.00;;;;;;5028033;28;20236;-90
2021/03/14 08:42:55;;;;;;;3.80;2.10;;;4.60;87.50;;;;;;5009895;28;20195;-90
2021/03/14 08:45:26;;;;;;;10.23;2.23;;;4.50;89.90;;;;;;5028238;28;20158;-90
2021/03/14 08:47:52;;;;;;;5.30;2.57;;;4.50;89.10;;;;;;5027082;28;20198;-90
2021/03/14 08:50:20;;;;;;;3.73;2.20;;;4.40;87.30;;;;;;5028007;28;20228;-90
2021/03/14 08:52:45;;;;;;;5.33;2.10;;;4.60;89.00;;;;;;5025431;28;20741;-90
2021/03/14 08:55:11;;;;;;;4.80;2.00;;;4.70;88.10;;;;;;5010281;28;20209;-89
2021/03/14 08:57:37;;;;;;;3.93;2.07;;;4.70;87.50;;;;;;5030379;28;20265;-90
2021/03/14 09:00:06;;;;;;;3.57;2.20;;;4.80;87.90;;;;;;5008957;28;20228;-92
2021/03/14 09:02:36;;;;;;;3.33;2.10;;;4.80;87.90;;;;;;5026324;28;20185;-90
2021/03/14 09:05:13;;;;;;;4.83;2.10;;;4.70;87.50;;;;;;5009483;28;20611;-89
2021/03/14 09:07:41;;;;;;;6.97;2.07;;;4.70;88.90;;;;;;5030013;28;20202;-91
2021/03/14 09:10:17;;;;;;;6.00;2.53;;;4.60;88.60;;;;;;5014138;28;20186;-89
2021/03/14 09:12:44;;;;;;;3.50;1.87;;;4.40;91.60;;;;;;4993061;28;20266;-91
2021/03/14 09:15:12;;;;;;;5.40;2.23;;;4.50;93.00;;;;;;4996067;28;20194;-90
2021/03/14 09:17:43;;;;;;;6.87;2.00;;;4.70;93.60;;;;;;5026611;28;20201;-90
2021/03/14 09:20:10;;;;;;;2.63;1.47;;;4.70;91.40;;;;;;5003977;28;20639;-90
2021/03/14 09:22:39;;;;;;;3.70;1.80;;;4.60;91.70;;;;;;5008935;28;20261;-91
2021/03/14 09:25:07;;;;;;;4.37;2.03;;;4.40;93.80;;;;;;5024108;28;20245;-90
2021/03/14 09:27:35;;;;;;;5.43;1.83;;;4.30;95.60;;;;;;5015532;28;20197;-90
2021/03/14 09:30:09;;;;;;;6.43;1.90;;;4.40;96.00;;;;;;5027213;28;20186;-90
2021/03/14 09:32:58;;;;;;;3.57;2.00;;;4.40;95.10;;;;;;5023395;28;20203;-90
2021/03/14 09:35:27;;;;;;;2.83;1.73;;;4.50;92.90;;;;;;5006404;28;20185;-90
2021/03/14 09:37:57;;;;;;;4.77;1.90;;;4.70;93.20;;;;;;5004572;28;20233;-91
2021/03/14 09:40:29;;;;;;;3.83;1.57;;;4.80;92.80;;;;;;5026537;28;20301;-90
2021/03/14 09:43:08;;;;;;;2.37;1.80;;;4.90;93.20;;;;;;5026657;28;20272;-90
2021/03/14 09:45:36;;;;;;;2.87;1.97;;;5.10;93.40;;;;;;5025773;28;20181;-91
2021/03/14 09:48:16;;;;;;;2.47;1.80;;;5.10;91.30;;;;;;5025878;28;20684;-90
2021/03/14 09:50:44;;;;;;;3.50;1.83;;;5.20;92.00;;;;;;5007443;28;20178;-90
2021/03/14 09:53:11;;;;;;;4.37;2.00;;;5.20;90.70;;;;;;5014347;28;20213;-90
2021/03/14 09:55:41;;;;;;;3.33;1.87;;;5.30;89.50;;;;;;5033695;28;20185;-91
2021/03/14 09:58:13;;;;;;;4.30;2.07;;;5.40;91.90;;;;;;5009420;28;20232;-90
2021/03/14 10:00:40;;;;;;;2.60;1.50;;;5.40;89.90;;;;;;5011693;28;20260;-90
2021/03/14 10:03:10;;;;;;;4.00;1.93;;;5.40;85.90;;;;;;4979500;28;20186;-91
2021/03/14 10:05:47;;;;;;;2.83;1.80;;;5.40;88.60;;;;;;5008830;28;20287;-90
2021/03/14 10:08:25;;;;;;;4.47;1.90;;;5.50;87.50;;;;;;5012569;28;20210;-90
2021/03/14 10:10:54;;;;;;;2.47;1.40;;;5.60;87.20;;;;;;5015617;28;20213;-89
2021/03/14 10:13:24;;;;;;;4.00;1.80;;;5.80;82.80;;;;;;5029289;28;20273;-90
2021/03/14 10:15:51;;;;;;;3.60;1.80;;;5.90;85.50;;;;;;5041496;28;20192;-89
2021/03/14 10:18:19;;;;;;;6.47;2.00;;;6.00;85.40;;;;;;5026177;28;20573;-89
2021/03/14 10:20:45;;;;;;;2.57;1.40;;;6.10;83.30;;;;;;5026871;28;20236;-90
2021/03/14 10:23:11;;;;;;;3.33;1.70;;;6.10;82.70;;;;;;5025060;28;20189;-90
2021/03/14 10:25:39;;;;;;;6.07;2.13;;;6.00;85.50;;;;;;5025279;28;20174;-90
2021/03/14 10:28:15;;;;;;;4.37;2.10;;;6.20;81.90;;;;;;5025492;28;20209;-90
2021/03/14 10:30:42;;;;;;;3.33;1.73;;;6.20;80.60;;;;;;5021775;28;20602;-90
2021/03/14 10:33:11;;;;;;;3.53;1.80;;;6.20;81.50;;;;;;5010174;28;20374;-90
2021/03/14 10:35:38;;;;;;;3.43;2.20;;;6.20;84.20;;;;;;5006653;28;20178;-90
2021/03/14 10:38:21;;;;;;;5.00;1.90;;;6.20;82.70;;;;;;4990203;28;20225;-90
2021/03/14 10:40:48;;;;;;;6.73;2.10;;;6.00;80.80;;;;;;5007739;28;20236;-91
2021/03/14 10:43:18;;;;;;;4.50;1.90;;;5.80;81.90;;;;;;5005745;28;20190;-91
2021/03/14 10:45:46;;;;;;;3.27;1.90;;;5.70;81.70;;;;;;5021242;28;20232;-91
2021/03/14 10:48:11;;;;;;;3.20;1.63;;;5.60;83.10;;;;;;5024877;28;20233;-90
2021/03/14 10:50:37;;;;;;;3.80;1.57;;;5.50;84.90;;;;;;5021949;28;20680;-91
2021/03/14 10:53:15;;;;;;;3.37;1.70;;;5.50;86.20;;;;;;5025762;28;20215;-90
2021/03/14 10:55:43;;;;;;;4.83;1.83;;;5.50;83.30;;;;;;5026679;28;20178;-89
2021/03/14 10:58:17;;;;;;;4.13;1.60;;;5.50;82.50;;;;;;5008328;28;20214;-89
2021/03/14 11:00:52;;;;;;;2.97;1.53;;;5.40;82.10;;;;;;5008498;28;20293;-92
2021/03/14 11:03:30;;;;;;;4.17;1.90;;;5.40;83.00;;;;;;5024002;28;20162;-90
2021/03/14 11:06:16;;;;;;;4.17;1.57;;;5.40;84.30;;;;;;5005906;28;20178;-90
2021/03/14 11:08:46;;;;;;;2.73;1.50;;;5.60;81.50;;;;;;5014048;28;20193;-90
2021/03/14 11:11:12;;;;;;;2.40;1.43;;;5.60;81.30;;;;;;5018795;28;20185;-91
2021/03/14 11:13:38;;;;;;;3.10;1.60;;;5.40;82.00;;;;;;5022914;28;20220;-91
2021/03/14 11:16:06;;;;;;;4.73;1.93;;;5.40;84.60;;;;;;5020559;28;20186;-91
2021/03/14 11:18:31;;;;;;;3.00;1.70;;;5.40;85.20;;;;;;5009521;28;20573;-91
2021/03/14 11:20:57;;;;;;;3.57;1.97;;;5.60;84.50;;;;;;4989831;28;20218;-90
2021/03/14 11:23:23;;;;;;;4.10;1.70;;;5.50;85.70;;;;;;5023469;28;20245;-91
2021/03/14 11:25:49;;;;;;;3.63;1.70;;;5.60;85.00;;;;;;5025450;28;20189;-91
2021/03/14 11:28:15;;;;;;;2.70;1.73;;;5.70;86.20;;;;;;5007914;28;20202;-90
2021/03/14 11:30:40;;;;;;;3.80;1.53;;;5.60;85.60;;;;;;5008987;28;20189;-92
2021/03/14 11:33:06;;;;;;;2.33;1.47;;;5.60;86.20;;;;;;5030181;28;20185;-91
2021/03/14 11:35:34;;;;;;;5.17;3.00;;;5.60;84.30;;;;;;5030565;28;20190;-90
2021/03/14 11:38:00;;;;;;;1.83;1.63;;;5.70;80.60;;;;;;4996808;28;20209;-90
2021/03/14 11:40:26;;;;;;;4.77;2.03;;;5.80;81.90;;;;;;5013412;28;20748;-90
2021/03/14 11:42:51;;;;;;;2.40;1.73;;;5.90;83.50;;;;;;5012967;28;20182;-91
2021/03/14 11:45:17;;;;;;;2.07;1.77;;;5.90;82.20;;;;;;5012457;28;20189;-91
2021/03/14 11:47:44;;;;;;;4.70;2.30;;;5.80;83.90;;;;;;5030351;28;20197;-91
2021/03/14 11:50:10;;;;;;;2.90;1.83;;;5.80;86.10;;;;;;4994413;28;20201;-90
2021/03/14 11:52:36;;;;;;;3.93;1.83;;;5.90;85.10;;;;;;4993132;28;20201;-91
2021/03/14 11:55:03;;;;;;;2.67;1.87;;;6.10;83.20;;;;;;4994658;28;20210;-90
2021/03/14 11:57:29;;;;;;;5.53;2.57;;;6.20;82.90;;;;;;5009492;28;20225;-90
2021/03/14 11:59:57;;;;;;;4.33;2.07;;;6.20;83.60;;;;;;5000788;28;20257;-90
2021/03/14 12:02:23;;;;;;;6.23;1.93;;;6.40;82.20;;;;;;4993346;28;20249;-92
2021/03/14 12:04:50;;;;;;;2.63;2.10;;;6.20;84.00;;;;;;5013532;28;20181;-89
2021/03/14 12:07:16;;;;;;;5.67;2.10;;;6.30;82.40;;;;;;5007105;28;20269;-90
2021/03/14 12:09:42;;;;;;;2.50;1.60;;;6.20;82.90;;;;;;4993013;28;20213;-90
2021/03/14 12:12:08;;;;;;;4.33;1.93;;;5.80;84.90;;;;;;4991379;28;20221;-91
2021/03/14 12:14:34;;;;;;;1.97;1.70;;;5.60;86.40;;;;;;5008152;28;20193;-90
2021/03/14 12:17:00;;;;;;;3.00;1.70;;;5.50;89.30;;;;;;4992468;28;20242;-92
2021/03/14 12:19:26;;;;;;;4.43;1.70;;;5.50;87.60;;;;;;4994117;28;20194;-91
2021/03/14 12:21:52;;;;;;;3.23;1.70;;;5.40;89.30;;;;;;4991978;28;20189;-90
2021/03/14 12:24:17;;;;;;;2.87;1.30;;;5.40;91.00;;;;;;5020334;28;20201;-91
2021/03/14 12:26:43;;;;;;;2.30;1.50;;;5.40;91.10;;;;;;5009363;28;20220;-91
2021/03/14 12:29:09;;;;;;;1.37;1.27;;;5.30;89.80;;;;;;5026723;28;20598;-90
2021/03/14 12:31:35;;;;;;;3.20;2.23;;;5.30;90.60;;;;;;5028862;28;20186;-91
2021/03/14 12:34:01;;;;;;;1.30;1.20;;;5.30;92.30;;;;;;5027553;28;20197;-91
2021/03/14 12:36:27;;;;;;;1.87;1.40;;;5.40;90.70;;;;;;5024174;28;20714;-91
2021/03/14 12:38:52;;;;;;;1.77;1.40;;;5.40;91.40;;;;;;5009925;28;20209;-91
2021/03/14 12:41:18;;;;;;;2.30;1.60;;;5.40;91.20;;;;;;5011607;28;20221;-91
2021/03/14 12:43:44;;;;;;;3.20;1.40;;;5.40;91.50;;;;;;5009300;28;20197;-91
2021/03/14 12:46:09;;;;;;;2.43;1.30;;;5.40;90.70;;;;;;5019068;28;20196;-90
2021/03/14 12:48:35;;;;;;;2.07;1.33;;;5.30;89.80;;;;;;5025988;28;20217;-91
2021/03/14 12:51:01;;;;;;;2.17;1.60;;;5.30;91.30;;;;;;5019270;28;20234;-91
2021/03/14 12:53:27;;;;;;;1.97;1.60;;;5.30;91.30;;;;;;5019430;28;20705;-91
2021/03/14 12:55:53;;;;;;;3.50;1.60;;;5.10;94.40;;;;;;5022571;28;20201;-91
2021/03/14 12:58:18;;;;;;;1.67;1.30;;;5.20;93.30;;;;;;5026840;28;20308;-92
2021/03/14 13:00:44;;;;;;;2.03;1.40;;;5.00;94.20;;;;;;5006614;28;20256;-91
2021/03/14 13:03:10;;;;;;;2.67;1.70;;;4.90;94.70;;;;;;4990986;28;20198;-92
2021/03/14 13:05:36;;;;;;;2.43;1.70;;;4.90;96.30;;;;;;5001028;28;20189;-92
2021/03/14 13:08:02;;;;;;;3.07;1.90;;;4.80;97.60;;;;;;5029918;28;20213;-92